Flight Track Log - Related Links

Times and Time Zones

All times are in EDT time to prevent confusion due to time zone crossing. See the UCA4838 flight status page for this flight to view local times or setup timezone preferences in your user account.

Time Position Orientation Groundspeed Altitude Reporting Facility
EDT Latitude Longitude Course Direction KTS MPH feet Rate Location/Type
Tue 06:15:01 AM 43.1261 -77.6731 113° Southeast 125 144 1,000  Level Cleveland Center
Tue 06:16:20 AM 43.1078 -77.6142 113° Southeast 159 183 2,400 1,110 Climbing Cleveland Center
Tue 06:17:27 AM 43.0811 -77.5472 119° Southeast 180 207 3,700 1,041 Climbing Cleveland Center
Tue 06:17:58 AM 43.0719 -77.5222 117° Southeast 190 219 4,100 848 Climbing Cleveland Center
Tue 06:18:59 AM 43.0411 -77.4583 123° Southeast 200 230 5,000 600 Climbing Cleveland Center
Tue 06:19:58 AM 43.0017 -77.3836 126° Southeast 220 253 5,300 850 Climbing Cleveland Center
Tue 06:20:59 AM 42.9703 -77.3058 119° Southeast 232 267 6,700 1,400 Climbing Cleveland Center
Tue 06:21:58 AM 42.9369 -77.2367 123° Southeast 232 267 8,100 1,261 Climbing Cleveland Center
Tue 06:22:58 AM 42.9058 -77.1647 121° Southeast 227 261 9,200 1,150 Climbing Cleveland Center
Tue 06:23:58 AM 42.8725 -77.0956 123° Southeast 227 261 10,400 1,018 Climbing Cleveland Center
Tue 06:25:49 AM 42.8111 -76.9644 123° Southeast 226 260 12,100 907 Climbing New York Center
Tue 06:26:50 AM 42.7775 -76.8878 121° Southeast 231 266 13,000 446 Climbing New York Center
Tue 06:27:50 AM 42.7403 -76.8025 121° Southeast 237 273 13,000  Level New York Center
Tue 06:28:51 AM 42.7011 -76.7142 121° Southeast 258 297 13,000  Level New York Center
Tue 06:29:51 AM 42.6578 -76.6200 122° Southeast 280 322 13,000  Level New York Center
Tue 06:30:49 AM 42.6167 -76.5261 121° Southeast 285 328 13,000  Level New York Center
Tue 06:31:50 AM 42.5753 -76.4353 122° Southeast 285 328 13,000  Level New York Center
Tue 06:32:43 AM 42.5353 -76.3458 121° Southeast 284 327 13,000  Level Boston Center
Tue 06:33:43 AM 42.5078 -76.2428 110° East 284 327 13,000  Level Boston Center
Tue 06:34:43 AM 42.4900 -76.1431 104° East 289 333 13,000  Level Boston Center
Tue 06:35:43 AM 42.4728 -76.0322 102° East 289 333 13,000  Level Boston Center
Tue 06:36:43 AM 42.4536 -75.9156 103° East 300 345 13,000  Level Boston Center
Tue 06:37:43 AM 42.4361 -75.7964 101° East 300 345 13,000  Level Boston Center
Tue 06:38:43 AM 42.4456 -75.6956 83° East 288 331 13,000  Level Boston Center
Tue 06:39:43 AM 42.4528 -75.5778 85° East 288 331 13,000  Level Boston Center
Tue 06:40:43 AM 42.4622 -75.4686 83° East 294 338 13,000  Level Boston Center
Tue 06:41:43 AM 42.4714 -75.3564 84° East 294 338 13,000  Level Boston Center
Tue 06:42:43 AM 42.4358 -75.2731 120° Southeast 259 298 13,000  Level Boston Center
Tue 06:43:55 AM 42.3653 -75.1828 137° Southeast 265 305 13,000  Level Boston Center
Tue 06:44:55 AM 42.3061 -75.1211 142° Southeast 270 311 13,000  Level Boston Center
Tue 06:45:55 AM 42.2450 -75.0597 143° Southeast 270 311 13,000  Level Boston Center
Tue 06:46:55 AM 42.1883 -74.9900 138° Southeast 276 318 13,000  Level Boston Center
Tue 06:47:55 AM 42.1272 -74.9261 142° Southeast 276 318 13,000 -100 Level Boston Center
Tue 06:48:55 AM 42.0572 -74.8897 159° South 271 312 12,800 -550 Descending Boston Center
Tue 06:49:55 AM 41.9911 -74.8592 161° South 271 312 11,900 -1,000 Descending Boston Center
Tue 06:50:55 AM 41.9167 -74.8256 161° South 262 302 10,800 -900 Descending Boston Center
Tue 06:51:55 AM 41.8653 -74.8014 161° South 262 302 10,100 -950 Descending Boston Center
Tue 06:52:55 AM 41.7847 -74.7650 161° South 255 293 8,900 -1,100 Descending Boston Center
Tue 06:53:55 AM 41.7289 -74.7378 160° South 250 288 7,900 -950 Descending Boston Center
Tue 06:54:55 AM 41.6567 -74.7047 161° South 244 281 7,000 -450 Descending Boston Center
Tue 06:55:55 AM 41.5967 -74.6747 159° South 244 281 7,000 -400 Level Boston Center
Tue 06:56:55 AM 41.5203 -74.6417 162° South 249 287 6,200 -500 Descending Boston Center
Tue 06:57:55 AM 41.4564 -74.6117 161° South 260 299 6,000 -100 Descending Boston Center
Tue 06:58:55 AM 41.3792 -74.6036 176° South 260 299 6,000  Level Boston Center
Tue 07:00:03 AM 41.3000 -74.6167 187° South 251 289 6,000  Level New York TRACON
Tue 07:01:03 AM 41.2333 -74.6167 180° South 250 288 6,000  Level New York TRACON
Tue 07:02:03 AM 41.1667 -74.6000 169° South 248 285 6,000  Level New York TRACON
Tue 07:02:57 AM 41.1000 -74.6000 180° South 248 285 6,000  Level New York TRACON
Tue 07:03:57 AM 41.0333 -74.6000 180° South 246 283 6,000  Level New York TRACON
Tue 07:04:57 AM 40.9667 -74.5833 169° South 249 287 6,000  Level New York TRACON
Tue 07:05:57 AM 40.9000 -74.5833 180° South 247 284 6,000 -421 Level New York TRACON
Tue 07:06:51 AM 40.8333 -74.5833 180° South 262 302 5,200 -526 Descending New York TRACON
Tue 07:07:51 AM 40.7833 -74.6333 217° Southwest 258 297 5,000 -100 Descending New York TRACON
Tue 07:08:51 AM 40.7000 -74.6333 180° South 251 289 5,000  Level New York TRACON
Tue 07:09:51 AM 40.6500 -74.6000 153° Southeast 253 291 5,000  Level New York TRACON
Tue 07:10:45 AM 40.5833 -74.5667 159° South 249 287 5,000 -400 Level New York TRACON
Tue 07:11:51 AM 40.5333 -74.5167 143° Southeast 235 270 4,200 -950 Descending New York TRACON
Tue 07:12:45 AM 40.5000 -74.4500 123° Southeast 234 269 3,100 -632 Descending New York TRACON
Tue 07:13:45 AM 40.4667 -74.3667 118° Southeast 231 266 3,000 -50 Descending New York TRACON
Tue 07:14:45 AM 40.5000 -74.3000 57° Northeast 235 270 3,000 -150 Level New York TRACON
Tue 07:15:45 AM 40.5500 -74.2500 37° Northeast 226 260 2,700 -700 Descending New York TRACON
Tue 07:16:45 AM 40.6000 -74.2167 27° Northeast 193 222 1,600 -950 Descending New York TRACON
Tue 07:17:45 AM 40.6500 -74.2000 14° North 141 162 800 -800 Descending New York TRACON

Login

Don't have an account? Register now (free) for customized features, flight alerts, and more!